sensor_id;sensor_type;location;lat;lon;timestamp;pressure;altitude;pressure_sealevel;temperature;humidity
45939;BME280;31650;48.818;9.116;2023-02-12T00:12:00;99931.75;;;3.25;100.00
45939;BME280;31650;48.818;9.116;2023-02-12T00:27:00;99947.53;;;3.18;100.00
45939;BME280;31650;48.818;9.116;2023-02-12T00:42:01;99946.91;;;3.26;100.00
45939;BME280;31650;48.818;9.116;2023-02-12T00:57:01;99969.16;;;3.28;100.00
45939;BME280;31650;48.818;9.116;2023-02-12T01:12:01;99959.72;;;3.22;100.00
45939;BME280;31650;48.818;9.116;2023-02-12T01:27:02;99968.88;;;3.19;100.00
45939;BME280;31650;48.818;9.116;2023-02-12T01:42:02;99962.66;;;3.30;100.00
45939;BME280;31650;48.818;9.116;2023-02-12T01:57:04;99942.31;;;3.49;100.00
45939;BME280;31650;48.818;9.116;2023-02-12T02:12:06;99951.38;;;3.36;100.00
45939;BME280;31650;48.818;9.116;2023-02-12T02:27:34;99927.34;;;3.24;100.00
45939;BME280;31650;48.818;9.116;2023-02-12T02:42:46;99922.81;;;3.24;100.00
45939;BME280;31650;48.818;9.116;2023-02-12T02:57:58;99926.78;;;3.09;100.00
45939;BME280;31650;48.818;9.116;2023-02-12T03:13:07;99924.47;;;3.04;100.00
45939;BME280;31650;48.818;9.116;2023-02-12T03:28:10;99934.22;;;3.05;100.00
45939;BME280;31650;48.818;9.116;2023-02-12T03:43:24;99928.94;;;3.15;100.00
45939;BME280;31650;48.818;9.116;2023-02-12T03:58:27;99933.56;;;3.24;100.00
45939;BME280;31650;48.818;9.116;2023-02-12T04:13:40;99936.59;;;3.42;100.00
45939;BME280;31650;48.818;9.116;2023-02-12T04:28:57;99947.38;;;3.31;100.00
45939;BME280;31650;48.818;9.116;2023-02-12T07:49:03;100001.47;;;4.24;100.00
45939;BME280;31650;48.818;9.116;2023-02-12T08:04:05;99988.19;;;4.33;100.00
45939;BME280;31650;48.818;9.116;2023-02-12T08:19:05;99977.94;;;4.68;100.00
45939;BME280;31650;48.818;9.116;2023-02-12T08:34:05;99977.03;;;4.79;100.00
45939;BME280;31650;48.818;9.116;2023-02-12T08:49:07;99979.13;;;5.06;100.00
45939;BME280;31650;48.818;9.116;2023-02-12T09:04:13;99989.69;;;5.29;100.00
45939;BME280;31650;48.818;9.116;2023-02-12T09:19:14;99992.78;;;5.74;100.00
45939;BME280;31650;48.818;9.116;2023-02-12T09:34:14;99970.63;;;6.49;100.00
45939;BME280;31650;48.818;9.116;2023-02-12T09:50:02;99977.19;;;7.03;94.05
45939;BME280;31650;48.818;9.116;2023-02-12T10:04:38;99983.88;;;7.36;96.50
45939;BME280;31650;48.818;9.116;2023-02-12T10:34:39;99968.31;;;7.84;92.36
45939;BME280;31650;48.818;9.116;2023-02-12T10:49:40;99967.47;;;7.65;96.99
45939;BME280;31650;48.818;9.116;2023-02-12T11:04:40;99952.06;;;7.66;96.29
45939;BME280;31650;48.818;9.116;2023-02-12T11:19:41;99944.41;;;7.97;94.80
45939;BME280;31650;48.818;9.116;2023-02-12T11:34:41;99938.22;;;7.87;94.75
45939;BME280;31650;48.818;9.116;2023-02-12T11:49:47;99940.69;;;7.98;93.03
45939;BME280;31650;48.818;9.116;2023-02-12T12:04:48;99931.81;;;8.06;92.88
45939;BME280;31650;48.818;9.116;2023-02-12T12:34:53;99912.25;;;8.90;88.51
45939;BME280;31650;48.818;9.116;2023-02-12T12:49:59;99901.63;;;9.05;84.42
45939;BME280;31650;48.818;9.116;2023-02-12T13:35:36;99846.19;;;9.08;82.28
45939;BME280;31650;48.818;9.116;2023-02-12T13:50:40;99847.94;;;8.48;89.16
45939;BME280;31650;48.818;9.116;2023-02-12T14:05:43;99832.81;;;8.64;88.06
45939;BME280;31650;48.818;9.116;2023-02-12T14:20:43;99832.94;;;8.62;88.97
45939;BME280;31650;48.818;9.116;2023-02-12T14:35:44;99812.78;;;8.65;87.08
45939;BME280;31650;48.818;9.116;2023-02-12T14:50:44;99812.19;;;8.19;92.82
45939;BME280;31650;48.818;9.116;2023-02-12T15:36:10;99809.47;;;7.49;100.00
45939;BME280;31650;48.818;9.116;2023-02-12T15:51:28;99797.16;;;7.18;100.00
45939;BME280;31650;48.818;9.116;2023-02-12T16:06:30;99805.06;;;6.29;100.00
45939;BME280;31650;48.818;9.116;2023-02-12T16:21:32;99811.63;;;6.16;100.00
45939;BME280;31650;48.818;9.116;2023-02-12T16:36:33;99821.19;;;5.82;100.00
45939;BME280;31650;48.818;9.116;2023-02-12T16:51:34;99824.63;;;5.74;100.00
45939;BME280;31650;48.818;9.116;2023-02-12T17:06:34;99848.59;;;5.28;100.00
45939;BME280;31650;48.818;9.116;2023-02-12T17:21:35;99863.22;;;4.35;100.00
45939;BME280;31650;48.818;9.116;2023-02-12T17:36:39;99885.63;;;4.15;100.00
45939;BME280;31650;48.818;9.116;2023-02-12T17:51:39;99895.25;;;3.11;100.00
45939;BME280;31650;48.818;9.116;2023-02-12T18:06:39;99900.16;;;2.27;100.00
45939;BME280;31650;48.818;9.116;2023-02-12T18:21:40;99909.75;;;1.96;100.00
45939;BME280;31650;48.818;9.116;2023-02-12T18:36:40;99906.81;;;1.63;100.00
45939;BME280;31650;48.818;9.116;2023-02-12T18:51:40;99905.75;;;1.42;100.00
45939;BME280;31650;48.818;9.116;2023-02-12T19:06:41;99913.84;;;1.29;100.00
45939;BME280;31650;48.818;9.116;2023-02-12T19:21:42;99918.84;;;1.10;100.00
45939;BME280;31650;48.818;9.116;2023-02-12T19:36:43;99927.03;;;0.95;100.00
45939;BME280;31650;48.818;9.116;2023-02-12T19:51:43;99928.09;;;0.93;100.00
45939;BME280;31650;48.818;9.116;2023-02-12T20:06:44;99924.66;;;1.03;100.00
45939;BME280;31650;48.818;9.116;2023-02-12T20:21:49;99921.84;;;1.05;100.00
45939;BME280;31650;48.818;9.116;2023-02-12T20:36:54;99942.38;;;0.80;100.00
45939;BME280;31650;48.818;9.116;2023-02-12T20:51:54;99936.44;;;1.01;100.00
45939;BME280;31650;48.818;9.116;2023-02-12T21:06:55;99940.94;;;0.51;100.00
45939;BME280;31650;48.818;9.116;2023-02-12T21:21:55;99929.72;;;-0.20;100.00
45939;BME280;31650;48.818;9.116;2023-02-12T21:36:55;99935.41;;;-0.52;100.00
45939;BME280;31650;48.818;9.116;2023-02-12T21:51:56;99928.25;;;-0.78;100.00
45939;BME280;31650;48.818;9.116;2023-02-12T22:06:57;99933.16;;;-0.99;100.00
45939;BME280;31650;48.818;9.116;2023-02-12T22:22:02;99919.22;;;-1.17;100.00
45939;BME280;31650;48.818;9.116;2023-02-12T22:37:02;99924.25;;;-1.13;100.00
45939;BME280;31650;48.818;9.116;2023-02-12T22:52:02;99922.16;;;-0.13;100.00
45939;BME280;31650;48.818;9.116;2023-02-12T23:07:03;99933.88;;;-1.10;100.00
45939;BME280;31650;48.818;9.116;2023-02-12T23:22:03;99928.09;;;-1.60;100.00
45939;BME280;31650;48.818;9.116;2023-02-12T23:37:03;99928.78;;;-1.56;100.00
45939;BME280;31650;48.818;9.116;2023-02-12T23:52:03;99929.13;;;-1.77;100.00
